createdAt,value
2019-06-01T00:00:11.631Z,1015.71
2019-06-01T00:01:04.682Z,1015.70
2019-06-01T00:02:04.711Z,1015.68
2019-06-01T00:03:04.752Z,1015.67
2019-06-01T00:04:04.774Z,1015.72
2019-06-01T00:05:04.803Z,1015.70
2019-06-01T00:06:04.825Z,1015.66
2019-06-01T00:07:04.852Z,1015.72
2019-06-01T00:08:04.882Z,1015.65
2019-06-01T00:09:04.914Z,1015.67
2019-06-01T00:10:04.945Z,1015.64
2019-06-01T00:11:04.968Z,1015.64
2019-06-01T00:12:04.996Z,1015.69
2019-06-01T00:13:05.033Z,1015.64
2019-06-01T00:14:05.055Z,1015.63
2019-06-01T00:15:05.086Z,1015.68
2019-06-01T00:16:05.117Z,1015.63
2019-06-01T00:17:05.139Z,1015.64
2019-06-01T00:18:05.166Z,1015.65
2019-06-01T00:19:05.197Z,1015.67
2019-06-01T00:20:05.224Z,1015.62
2019-06-01T00:21:05.250Z,1015.65
2019-06-01T00:22:05.277Z,1015.65
2019-06-01T00:23:05.308Z,1015.63
2019-06-01T00:24:05.340Z,1015.61
2019-06-01T00:25:05.363Z,1015.62
2019-06-01T00:26:05.409Z,1015.58
2019-06-01T00:27:05.419Z,1015.60
2019-06-01T00:28:05.447Z,1015.60
2019-06-01T00:29:05.476Z,1015.58
2019-06-01T00:30:05.504Z,1015.61
2019-06-01T00:31:05.535Z,1015.59
2019-06-01T00:32:05.564Z,1015.60
2019-06-01T00:33:05.591Z,1015.59
2019-06-01T00:34:05.618Z,1015.59
2019-06-01T00:35:05.656Z,1015.64
2019-06-01T00:36:05.674Z,1015.61
2019-06-01T00:37:05.718Z,1015.63
2019-06-01T00:38:05.730Z,1015.67
2019-06-01T00:39:05.759Z,1015.66
2019-06-01T00:40:05.795Z,1015.67
2019-06-01T00:41:05.818Z,1015.71
2019-06-01T00:42:05.843Z,1015.66
2019-06-01T00:43:05.872Z,1015.68
2019-06-01T00:44:05.900Z,1015.67
2019-06-01T00:45:05.928Z,1015.66
2019-06-01T00:46:05.958Z,1015.70
2019-06-01T00:47:05.986Z,1015.66
2019-06-01T00:48:06.013Z,1015.61
2019-06-01T00:49:06.045Z,1015.70
2019-06-01T00:50:06.069Z,1015.61
2019-06-01T00:51:06.103Z,1015.65
2019-06-01T00:52:06.127Z,1015.56
2019-06-01T00:53:06.155Z,1015.61
2019-06-01T00:54:06.182Z,1015.58
2019-06-01T00:55:06.213Z,1015.60
2019-06-01T00:56:06.238Z,1015.54
2019-06-01T00:57:06.269Z,1015.63
2019-06-01T00:58:06.296Z,1015.60
2019-06-01T00:59:06.324Z,1015.58
2019-06-01T01:00:06.356Z,1015.62
2019-06-01T01:01:06.386Z,1015.70
2019-06-01T01:02:06.409Z,1015.67
2019-06-01T01:03:06.447Z,1015.69
2019-06-01T01:04:06.470Z,1015.64
2019-06-01T01:05:06.517Z,1015.68
2019-06-01T01:06:06.529Z,1015.65
2019-06-01T01:07:06.559Z,1015.67
2019-06-01T01:08:06.578Z,1015.67
2019-06-01T01:09:06.608Z,1015.65
2019-06-01T01:10:06.632Z,1015.69
2019-06-01T01:11:06.662Z,1015.66
2019-06-01T01:12:06.689Z,1015.73
2019-06-01T01:13:06.719Z,1015.70
2019-06-01T01:14:06.750Z,1015.69
2019-06-01T01:15:06.793Z,1015.70
2019-06-01T01:16:06.801Z,1015.67
2019-06-01T01:17:06.831Z,1015.67
2019-06-01T01:18:06.858Z,1015.67
2019-06-01T01:19:06.884Z,1015.64
2019-06-01T01:20:06.916Z,1015.68
2019-06-01T01:21:06.943Z,1015.67
2019-06-01T01:22:06.968Z,1015.65
2019-06-01T01:23:07.003Z,1015.65
2019-06-01T01:24:07.027Z,1015.64
2019-06-01T01:25:07.055Z,1015.61
2019-06-01T01:26:07.100Z,1015.64
2019-06-01T01:27:07.111Z,1015.63
2019-06-01T01:28:07.138Z,1015.60
2019-06-01T01:29:07.168Z,1015.60
2019-06-01T01:30:07.197Z,1015.64
2019-06-01T01:31:13.730Z,1015.60
2019-06-01T01:32:07.252Z,1015.59
2019-06-01T01:33:07.284Z,1015.59
2019-06-01T01:34:07.312Z,1015.60
2019-06-01T01:35:07.340Z,1015.61
2019-06-01T01:36:07.367Z,1015.59
2019-06-01T01:37:07.398Z,1015.59
2019-06-01T01:38:07.419Z,1015.58
2019-06-01T01:39:07.445Z,1015.58
2019-06-01T01:40:07.473Z,1015.60
2019-06-01T01:41:07.508Z,1015.55
2019-06-01T01:42:07.529Z,1015.60
2019-06-01T01:43:07.563Z,1015.53
2019-06-01T01:44:07.587Z,1015.55
2019-06-01T01:45:07.613Z,1015.52
2019-06-01T01:46:07.642Z,1015.49
2019-06-01T01:47:07.669Z,1015.53
2019-06-01T01:48:07.697Z,1015.58
2019-06-01T01:49:07.734Z,1015.52
2019-06-01T01:50:07.759Z,1015.57
2019-06-01T01:51:07.783Z,1015.55
2019-06-01T01:52:07.810Z,1015.56
2019-06-01T01:53:07.845Z,1015.57
2019-06-01T01:54:07.872Z,1015.54
2019-06-01T01:55:07.892Z,1015.53
2019-06-01T01:56:07.927Z,1015.53
2019-06-01T01:57:07.951Z,1015.54
2019-06-01T01:58:07.977Z,1015.52
2019-06-01T01:59:08.006Z,1015.53
2019-06-01T02:00:08.039Z,1015.56
2019-06-01T02:01:21.331Z,1015.49
2019-06-01T02:02:08.094Z,1015.52
2019-06-01T02:03:08.127Z,1015.52
2019-06-01T02:04:08.155Z,1015.55
2019-06-01T02:05:08.171Z,1015.54
2019-06-01T02:06:08.200Z,1015.53
2019-06-01T02:07:08.230Z,1015.57
2019-06-01T02:08:08.255Z,1015.51
2019-06-01T02:09:08.283Z,1015.57
2019-06-01T02:10:08.311Z,1015.59
2019-06-01T02:11:08.338Z,1015.62
2019-06-01T02:12:08.369Z,1015.64
2019-06-01T02:13:08.407Z,1015.63
2019-06-01T02:14:08.424Z,1015.65
2019-06-01T02:15:08.455Z,1015.63
2019-06-01T02:16:08.498Z,1015.61
2019-06-01T02:17:08.509Z,1015.60
2019-06-01T02:18:08.533Z,1015.59
2019-06-01T02:19:08.570Z,1015.53
2019-06-01T02:20:08.589Z,1015.54
2019-06-01T02:21:08.619Z,1015.54
2019-06-01T02:22:08.651Z,1015.56
2019-06-01T02:23:08.674Z,1015.55
2019-06-01T02:24:08.701Z,1015.52
2019-06-01T02:25:08.731Z,1015.53
2019-06-01T02:26:08.764Z,1015.50
2019-06-01T02:27:08.786Z,1015.55
2019-06-01T02:28:08.812Z,1015.55
2019-06-01T02:29:08.846Z,1015.53
2019-06-01T02:30:08.868Z,1015.53
2019-06-01T02:31:08.897Z,1015.49
2019-06-01T02:32:08.932Z,1015.53
2019-06-01T02:33:08.961Z,1015.56
2019-06-01T02:34:08.981Z,1015.56
2019-06-01T02:35:09.010Z,1015.57
2019-06-01T02:36:09.041Z,1015.58
2019-06-01T02:37:09.063Z,1015.51
2019-06-01T02:38:09.090Z,1015.54
2019-06-01T02:39:09.121Z,1015.55
2019-06-01T02:40:09.146Z,1015.50
2019-06-01T02:41:09.174Z,1015.50
2019-06-01T02:42:09.207Z,1015.56
2019-06-01T02:43:09.227Z,1015.51
2019-06-01T02:44:09.269Z,1015.52
2019-06-01T02:45:09.284Z,1015.47
2019-06-01T02:46:09.311Z,1015.52
2019-06-01T02:47:09.344Z,1015.45
2019-06-01T02:48:09.385Z,1015.50
2019-06-01T02:49:09.411Z,1015.50
2019-06-01T02:50:09.425Z,1015.56
2019-06-01T02:51:09.450Z,1015.52
2019-06-01T02:52:09.479Z,1015.54
2019-06-01T02:53:09.506Z,1015.48
2019-06-01T02:54:09.534Z,1015.53
2019-06-01T02:55:09.563Z,1015.52
2019-06-01T02:56:09.592Z,1015.51
2019-06-01T02:57:09.624Z,1015.53
2019-06-01T02:58:09.644Z,1015.46
2019-06-01T02:59:09.675Z,1015.48
2019-06-01T03:00:09.701Z,1015.43
2019-06-01T03:01:09.734Z,1015.47
2019-06-01T03:02:13.374Z,1015.47
2019-06-01T03:03:09.783Z,1015.47
2019-06-01T03:04:09.814Z,1015.45
2019-06-01T03:05:09.854Z,1015.48
2019-06-01T03:06:09.874Z,1015.46
2019-06-01T03:07:09.895Z,1015.50
2019-06-01T03:08:09.928Z,1015.50
2019-06-01T03:09:09.957Z,1015.53
2019-06-01T03:10:09.976Z,1015.56
2019-06-01T03:11:10.029Z,1015.60
2019-06-01T03:12:10.033Z,1015.60
2019-06-01T03:13:10.063Z,1015.62
2019-06-01T03:14:10.090Z,1015.60
2019-06-01T03:15:10.118Z,1015.60
2019-06-01T03:16:10.148Z,1015.58
2019-06-01T03:17:10.179Z,1015.58
2019-06-01T03:18:10.201Z,1015.59
2019-06-01T03:19:10.226Z,1015.59
2019-06-01T03:20:10.254Z,1015.62
2019-06-01T03:21:10.285Z,1015.62
2019-06-01T03:22:10.316Z,1015.65
2019-06-01T03:23:10.340Z,1015.63
2019-06-01T03:24:10.365Z,1015.64
2019-06-01T03:25:10.391Z,1015.65
2019-06-01T03:26:10.422Z,1015.61
2019-06-01T03:27:10.451Z,1015.65
2019-06-01T03:28:10.478Z,1015.66
2019-06-01T03:29:10.505Z,1015.64
2019-06-01T03:30:12.921Z,1015.64
2019-06-01T03:31:10.822Z,1015.68
2019-06-01T03:32:29.831Z,1015.63
2019-06-01T03:33:10.771Z,1015.65
2019-06-01T03:34:11.415Z,1015.64
2019-06-01T03:35:10.667Z,1015.63
2019-06-01T03:36:10.739Z,1015.65
2019-06-01T03:37:10.727Z,1015.62
2019-06-01T03:38:11.174Z,1015.63
2019-06-01T03:39:10.806Z,1015.59
2019-06-01T03:40:19.623Z,1015.57
2019-06-01T03:41:10.836Z,1015.55
2019-06-01T03:42:11.711Z,1015.60
2019-06-01T03:43:11.366Z,1015.59
2019-06-01T03:44:10.919Z,1015.59
2019-06-01T03:45:12.342Z,1015.59
2019-06-01T03:46:10.978Z,1015.61
2019-06-01T03:47:11.894Z,1015.65
2019-06-01T03:48:11.031Z,1015.68
2019-06-01T03:49:12.006Z,1015.67
2019-06-01T03:50:11.086Z,1015.69
2019-06-01T03:51:11.993Z,1015.69
2019-06-01T03:52:11.159Z,1015.67
2019-06-01T03:53:12.172Z,1015.70
2019-06-01T03:54:11.198Z,1015.70
2019-06-01T03:55:12.025Z,1015.69
2019-06-01T03:56:11.253Z,1015.70
2019-06-01T03:57:11.345Z,1015.68
2019-06-01T03:58:11.313Z,1015.65
2019-06-01T03:59:11.368Z,1015.68
2019-06-01T04:00:11.999Z,1015.67
2019-06-01T04:01:11.390Z,1015.62
2019-06-01T04:02:11.418Z,1015.66
2019-06-01T04:03:11.446Z,1015.64
2019-06-01T04:04:11.472Z,1015.65
2019-06-01T04:05:11.511Z,1015.66
2019-06-01T04:06:11.540Z,1015.62
2019-06-01T04:07:12.449Z,1015.66
2019-06-01T04:08:11.762Z,1015.68
2019-06-01T04:09:11.911Z,1015.69
2019-06-01T04:10:11.885Z,1015.70
2019-06-01T04:11:11.805Z,1015.70
2019-06-01T04:12:12.049Z,1015.71
2019-06-01T04:13:11.974Z,1015.70
2019-06-01T04:14:11.875Z,1015.64
2019-06-01T04:15:14.492Z,1015.61
2019-06-01T04:16:12.084Z,1015.62
2019-06-01T04:17:12.220Z,1015.62
2019-06-01T04:18:13.927Z,1015.63
2019-06-01T04:19:12.264Z,1015.65
2019-06-01T04:20:12.320Z,1015.63
2019-06-01T04:21:12.199Z,1015.64
2019-06-01T04:22:12.301Z,1015.71
2019-06-01T04:23:12.372Z,1015.67
2019-06-01T04:24:12.364Z,1015.71
2019-06-01T04:25:12.353Z,1015.68
2019-06-01T04:26:12.273Z,1015.67
2019-06-01T04:27:12.355Z,1015.69
2019-06-01T04:28:12.619Z,1015.69
2019-06-01T04:29:12.617Z,1015.73
2019-06-01T04:30:13.598Z,1015.68
2019-06-01T04:31:12.820Z,1015.73
2019-06-01T04:32:12.867Z,1015.72
2019-06-01T04:33:13.266Z,1015.66
2019-06-01T04:34:13.101Z,1015.65
2019-06-01T04:35:13.192Z,1015.69
2019-06-01T04:36:13.107Z,1015.66
2019-06-01T04:37:13.354Z,1015.70
2019-06-01T04:38:13.415Z,1015.68
2019-06-01T04:39:13.642Z,1015.76
2019-06-01T04:40:13.628Z,1015.71
2019-06-01T04:41:13.991Z,1015.76
2019-06-01T04:42:13.824Z,1015.77
2019-06-01T04:43:12.558Z,1015.71
2019-06-01T04:44:12.591Z,1015.74
2019-06-01T04:45:12.661Z,1015.73
2019-06-01T04:46:12.648Z,1015.71
2019-06-01T04:47:12.670Z,1015.68
2019-06-01T04:48:12.698Z,1015.69
2019-06-01T04:49:13.362Z,1015.67
2019-06-01T04:50:13.144Z,1015.73
2019-06-01T04:51:13.463Z,1015.70
2019-06-01T04:52:13.536Z,1015.71
2019-06-01T04:53:13.442Z,1015.69
2019-06-01T04:54:14.438Z,1015.69
2019-06-01T04:55:13.115Z,1015.72
2019-06-01T04:56:13.151Z,1015.68
2019-06-01T04:57:13.087Z,1015.68
2019-06-01T04:58:13.124Z,1015.63
2019-06-01T04:59:13.078Z,1015.66
2019-06-01T05:00:25.719Z,1015.63
2019-06-01T05:01:13.090Z,1015.65
2019-06-01T05:02:13.222Z,1015.61
2019-06-01T05:03:13.576Z,1015.65
2019-06-01T05:04:13.355Z,1015.59
2019-06-01T05:05:13.393Z,1015.61
2019-06-01T05:06:13.472Z,1015.60
2019-06-01T05:07:13.543Z,1015.65
2019-06-01T05:08:13.926Z,1015.60
2019-06-01T05:09:13.427Z,1015.68
2019-06-01T05:10:14.271Z,1015.64
2019-06-01T05:11:13.596Z,1015.66
2019-06-01T05:12:13.678Z,1015.62
2019-06-01T05:13:13.617Z,1015.67
2019-06-01T05:14:13.799Z,1015.62
2019-06-01T05:15:13.952Z,1015.60
2019-06-01T05:16:14.910Z,1015.59
2019-06-01T05:17:14.980Z,1015.65
2019-06-01T05:18:14.256Z,1015.62
2019-06-01T05:19:14.318Z,1015.62
2019-06-01T05:20:14.727Z,1015.63
2019-06-01T05:21:15.196Z,1015.65
2019-06-01T05:22:14.630Z,1015.60
2019-06-01T05:23:14.834Z,1015.58
2019-06-01T05:24:14.776Z,1015.55
2019-06-01T05:25:15.278Z,1015.56
2019-06-01T05:26:14.990Z,1015.49
2019-06-01T05:27:15.152Z,1015.53
2019-06-01T05:28:13.823Z,1015.54
2019-06-01T05:29:56.398Z,1015.55
2019-06-01T05:30:57.636Z,1015.50
2019-06-01T05:32:56.478Z,1015.53
2019-06-01T05:33:56.504Z,1015.53
2019-06-01T05:34:56.532Z,1015.46
2019-06-01T05:36:59.164Z,1015.49
2019-06-01T05:37:59.190Z,1015.43
2019-06-01T05:38:59.222Z,1015.48
2019-06-01T05:39:59.248Z,1015.43
2019-06-01T05:40:59.277Z,1015.45
2019-06-01T05:41:59.304Z,1015.42
2019-06-01T05:42:59.334Z,1015.51
2019-06-01T05:43:59.365Z,1015.48
2019-06-01T05:44:59.392Z,1015.48
2019-06-01T05:45:59.425Z,1015.46
2019-06-01T05:46:59.470Z,1015.49
2019-06-01T05:47:59.482Z,1015.46
2019-06-01T05:48:59.513Z,1015.49
2019-06-01T05:49:59.541Z,1015.49
2019-06-01T05:50:59.568Z,1015.54
2019-06-01T05:51:59.597Z,1015.53
2019-06-01T05:52:59.629Z,1015.54
2019-06-01T05:53:59.660Z,1015.61
2019-06-01T05:54:59.688Z,1015.58
2019-06-01T05:55:59.716Z,1015.63
2019-06-01T05:56:59.746Z,1015.66
2019-06-01T05:57:59.782Z,1015.65
2019-06-01T05:58:59.805Z,1015.74
2019-06-01T05:59:59.834Z,1015.71
2019-06-01T06:00:59.864Z,1015.61
2019-06-01T06:01:59.901Z,1015.68
2019-06-01T06:02:59.926Z,1015.67
2019-06-01T06:03:59.961Z,1015.61
2019-06-01T06:04:59.991Z,1015.67
2019-06-01T06:06:00.013Z,1015.70
2019-06-01T06:07:00.043Z,1015.61
2019-06-01T06:08:00.083Z,1015.58
2019-06-01T06:09:00.103Z,1015.63
2019-06-01T06:10:00.135Z,1015.66
2019-06-01T06:11:00.164Z,1015.64
2019-06-01T06:12:00.196Z,1015.64
2019-06-01T06:13:00.226Z,1015.66
2019-06-01T06:14:00.257Z,1015.67
2019-06-01T06:15:00.287Z,1015.64
2019-06-01T06:16:00.317Z,1015.71
2019-06-01T06:17:00.345Z,1015.74
2019-06-01T06:18:00.376Z,1015.71
2019-06-01T06:19:00.407Z,1015.74
2019-06-01T06:20:00.437Z,1015.70
2019-06-01T06:21:00.467Z,1015.69
2019-06-01T06:22:00.501Z,1015.71
2019-06-01T06:23:00.530Z,1015.72
2019-06-01T06:24:00.558Z,1015.75
2019-06-01T06:25:00.589Z,1015.69
2019-06-01T06:26:00.634Z,1015.69
2019-06-01T06:27:00.651Z,1015.61
2019-06-01T06:28:00.684Z,1015.63
2019-06-01T06:29:00.711Z,1015.67
2019-06-01T06:30:00.748Z,1015.69
2019-06-01T06:31:00.776Z,1015.72
2019-06-01T06:32:00.805Z,1015.71
2019-06-01T06:33:00.836Z,1015.73
2019-06-01T06:34:00.871Z,1015.71
2019-06-01T06:35:00.905Z,1015.70
2019-06-01T06:36:00.929Z,1015.71
2019-06-01T06:37:00.963Z,1015.67
2019-06-01T06:38:00.991Z,1015.70
2019-06-01T06:39:01.029Z,1015.68
2019-06-01T06:40:01.057Z,1015.67
2019-06-01T06:41:01.113Z,1015.64
2019-06-01T06:42:01.208Z,1015.58
2019-06-01T06:43:01.149Z,1015.64
2019-06-01T06:44:01.187Z,1015.60
2019-06-01T06:45:03.551Z,1015.59
2019-06-01T06:46:01.263Z,1015.55
2019-06-01T06:47:01.290Z,1015.59
2019-06-01T06:48:01.315Z,1015.59
2019-06-01T06:49:01.341Z,1015.57
2019-06-01T06:50:01.375Z,1015.58
2019-06-01T06:51:01.415Z,1015.58
2019-06-01T06:52:01.446Z,1015.58
2019-06-01T06:53:01.478Z,1015.54
2019-06-01T06:54:01.499Z,1015.56
2019-06-01T06:55:01.532Z,1015.58
2019-06-01T06:56:01.603Z,1015.53
2019-06-01T06:57:01.599Z,1015.51
2019-06-01T06:58:01.637Z,1015.50
2019-06-01T06:59:01.672Z,1015.54
2019-06-01T07:00:01.707Z,1015.53
2019-06-01T07:01:01.744Z,1015.59
2019-06-01T07:02:01.756Z,1015.54
2019-06-01T07:03:01.790Z,1015.55
2019-06-01T07:04:12.217Z,1015.58
2019-06-01T07:05:01.882Z,1015.60
2019-06-01T07:06:01.909Z,1015.60
2019-06-01T07:07:01.920Z,1015.55
2019-06-01T07:08:01.970Z,1015.58
2019-06-01T07:09:01.984Z,1015.44
2019-06-01T07:10:02.038Z,1015.50
2019-06-01T07:11:02.069Z,1015.54
2019-06-01T07:12:02.083Z,1015.56
2019-06-01T07:13:02.136Z,1015.54
2019-06-01T07:14:02.161Z,1015.57
2019-06-01T07:15:02.184Z,1015.58
2019-06-01T07:16:03.962Z,1015.53
2019-06-01T07:17:02.263Z,1015.50
2019-06-01T07:18:02.286Z,1015.50
2019-06-01T07:19:02.318Z,1015.50
2019-06-01T07:20:02.350Z,1015.52
2019-06-01T07:21:02.378Z,1015.51
2019-06-01T07:22:02.411Z,1015.48
2019-06-01T07:23:02.448Z,1015.54
2019-06-01T07:24:02.503Z,1015.56
2019-06-01T07:25:02.533Z,1015.61
2019-06-01T07:26:02.546Z,1015.61
2019-06-01T07:27:02.577Z,1015.58
2019-06-01T07:28:02.632Z,1015.56
2019-06-01T07:29:02.644Z,1015.54
2019-06-01T07:30:02.706Z,1015.52
2019-06-01T07:31:02.707Z,1015.59
2019-06-01T07:32:02.744Z,1015.55
2019-06-01T07:33:02.775Z,1015.58
2019-06-01T07:34:02.810Z,1015.57
2019-06-01T07:35:02.888Z,1015.57
2019-06-01T07:36:02.877Z,1015.59
2019-06-01T07:37:02.917Z,1015.65
2019-06-01T07:38:02.941Z,1015.64
2019-06-01T07:39:02.976Z,1015.67
2019-06-01T07:40:03.012Z,1015.64
2019-06-01T07:41:03.040Z,1015.63
2019-06-01T07:42:03.299Z,1015.62
2019-06-01T07:43:03.107Z,1015.65
2019-06-01T07:44:03.143Z,1015.66
2019-06-01T07:45:03.176Z,1015.65
2019-06-01T07:46:03.207Z,1015.66
2019-06-01T07:47:03.251Z,1015.70
2019-06-01T07:48:03.290Z,1015.71
2019-06-01T07:49:03.310Z,1015.70
2019-06-01T07:50:03.347Z,1015.70
2019-06-01T07:51:03.376Z,1015.72
2019-06-01T07:52:12.765Z,1015.74
2019-06-01T07:53:03.442Z,1015.75
2019-06-01T07:54:03.485Z,1015.76
2019-06-01T07:55:03.510Z,1015.72
2019-06-01T07:56:03.570Z,1015.75
2019-06-01T07:57:03.581Z,1015.70
2019-06-01T07:58:03.619Z,1015.72
2019-06-01T07:59:06.687Z,1015.71
2019-06-01T08:03:03.798Z,1015.69
2019-06-01T08:05:04.066Z,1015.68
2019-06-01T08:06:03.891Z,1015.69
2019-06-01T08:07:03.926Z,1015.69
2019-06-01T08:08:04.163Z,1015.71
2019-06-01T08:09:04.000Z,1015.66
2019-06-01T08:11:04.052Z,1015.71
2019-06-01T08:12:04.090Z,1015.67
2019-06-01T08:13:04.123Z,1015.73
2019-06-01T08:14:04.154Z,1015.72
2019-06-01T08:15:04.200Z,1015.74
2019-06-01T08:16:04.226Z,1015.69
2019-06-01T08:17:04.258Z,1015.73
2019-06-01T08:18:04.296Z,1015.77
2019-06-01T08:19:04.326Z,1015.80
2019-06-01T08:20:04.362Z,1015.85
2019-06-01T08:21:04.395Z,1015.81
2019-06-01T08:22:04.453Z,1015.75
2019-06-01T08:23:04.465Z,1015.72
2019-06-01T08:24:04.557Z,1015.78
2019-06-01T08:25:04.533Z,1015.66
2019-06-01T08:26:04.581Z,1015.62
2019-06-01T08:27:04.605Z,1015.59
2019-06-01T08:28:04.638Z,1015.61
2019-06-01T08:29:04.699Z,1015.57
2019-06-01T08:30:04.950Z,1015.61
2019-06-01T08:31:04.755Z,1015.65
2019-06-01T08:32:04.788Z,1015.57
2019-06-01T08:33:04.820Z,1015.56
2019-06-01T08:34:04.877Z,1015.57
2019-06-01T08:35:09.363Z,1015.59
2019-06-01T08:36:04.930Z,1015.54
2019-06-01T08:37:05.363Z,1015.64
2019-06-01T08:38:04.982Z,1015.71
2019-06-01T08:39:05.018Z,1015.65
2019-06-01T08:40:05.050Z,1015.73
2019-06-01T08:41:05.085Z,1015.88
2019-06-01T08:42:05.121Z,1015.77
2019-06-01T08:43:05.152Z,1015.78
2019-06-01T08:44:05.199Z,1015.72
2019-06-01T08:45:05.223Z,1015.80
2019-06-01T08:46:05.300Z,1015.87
2019-06-01T08:47:05.289Z,1015.80
2019-06-01T08:48:05.327Z,1015.78
2019-06-01T08:49:05.365Z,1015.82
2019-06-01T08:50:05.409Z,1015.84
2019-06-01T08:51:05.431Z,1015.77
2019-06-01T08:52:05.463Z,1015.76
2019-06-01T08:53:05.495Z,1015.75
2019-06-01T08:54:05.540Z,1015.68
2019-06-01T08:55:05.563Z,1015.69
2019-06-01T08:56:05.602Z,1015.74
2019-06-01T08:57:05.641Z,1015.83
2019-06-01T08:58:05.673Z,1015.82
2019-06-01T08:59:05.706Z,1015.83
2019-06-01T09:00:05.753Z,1015.89
2019-06-01T09:01:05.799Z,1015.83
2019-06-01T09:02:05.826Z,1015.81
2019-06-01T09:03:05.859Z,1015.82
2019-06-01T09:06:32.834Z,1015.90
2019-06-01T09:07:33.108Z,1015.86
2019-06-01T09:08:33.151Z,1015.88
2019-06-01T09:09:33.041Z,1015.94
2019-06-01T09:10:33.193Z,1015.91
2019-06-01T09:11:33.226Z,1015.97
2019-06-01T09:12:33.249Z,1015.95
2019-06-01T09:13:33.237Z,1015.90
2019-06-01T09:14:33.379Z,1015.89
2019-06-01T09:15:33.650Z,1015.76
2019-06-01T09:16:33.486Z,1015.82
2019-06-01T09:17:33.426Z,1015.83
2019-06-01T09:18:33.580Z,1015.85
2019-06-01T09:19:33.591Z,1015.88
2019-06-01T09:20:35.852Z,1015.90
2019-06-01T09:21:33.609Z,1015.93
2019-06-01T09:22:33.523Z,1015.94
2019-06-01T09:23:33.792Z,1015.96
2019-06-01T09:24:33.875Z,1015.95
2019-06-01T09:25:33.740Z,1015.97
2019-06-01T09:26:33.607Z,1015.93
2019-06-01T09:27:33.846Z,1015.98
2019-06-01T09:28:32.563Z,1015.89
2019-06-01T09:29:33.994Z,1015.90
2019-06-01T09:30:32.635Z,1015.82
2019-06-01T09:31:32.690Z,1015.88
2019-06-01T09:32:32.710Z,1015.90
2019-06-01T09:33:32.754Z,1015.89
2019-06-01T09:34:32.787Z,1015.98
2019-06-01T09:35:48.598Z,1015.88
2019-06-01T09:36:32.858Z,1015.91
2019-06-01T09:37:32.903Z,1015.92
2019-06-01T09:38:33.738Z,1015.92
2019-06-01T09:39:33.195Z,1015.95
2019-06-01T09:40:33.566Z,1015.89
2019-06-01T09:41:33.047Z,1015.80
2019-06-01T09:42:33.450Z,1015.91
2019-06-01T09:43:33.122Z,1015.77
2019-06-01T09:44:33.584Z,1015.77
2019-06-01T09:45:34.492Z,1015.73
2019-06-01T09:46:34.042Z,1015.77
2019-06-01T09:47:33.370Z,1015.74
2019-06-01T09:48:33.606Z,1015.75
2019-06-01T09:49:34.105Z,1015.78
2019-06-01T09:50:33.544Z,1015.84
2019-06-01T09:51:33.502Z,1015.95
2019-06-01T09:52:33.474Z,1016.14
2019-06-01T09:53:34.421Z,1016.13
2019-06-01T09:54:34.725Z,1016.15
2019-06-01T09:55:34.481Z,1016.27
2019-06-01T09:56:35.515Z,1016.59
2019-06-01T09:57:34.175Z,1016.53
2019-06-01T09:58:34.557Z,1016.57
2019-06-01T09:59:34.086Z,1016.55
2019-06-01T10:00:34.823Z,1016.43
2019-06-01T10:01:34.414Z,1016.54
2019-06-01T10:02:34.151Z,1016.55
2019-06-01T10:03:34.475Z,1016.54
2019-06-01T10:04:34.431Z,1016.51
2019-06-01T10:05:34.845Z,1016.54
2019-06-01T10:06:34.659Z,1016.60
2019-06-01T10:07:34.853Z,1016.61
2019-06-01T10:08:34.487Z,1016.57
2019-06-01T10:09:34.097Z,1016.64
2019-06-01T10:10:34.137Z,1016.64
2019-06-01T10:11:34.357Z,1016.64
2019-06-01T10:12:34.203Z,1016.52
2019-06-01T10:13:34.723Z,1016.40
2019-06-01T10:14:34.280Z,1016.46
2019-06-01T10:15:34.434Z,1016.34
2019-06-01T10:16:34.576Z,1016.26
2019-06-01T10:17:35.168Z,1016.09
2019-06-01T10:18:35.319Z,1016.14
2019-06-01T10:19:34.703Z,1016.02
2019-06-01T10:20:34.854Z,1016.03
2019-06-01T10:21:34.541Z,1015.93
2019-06-01T10:22:35.078Z,1015.85
2019-06-01T10:23:34.733Z,1015.73
2019-06-01T10:24:35.107Z,1015.70
2019-06-01T10:25:34.691Z,1015.62
2019-06-01T10:26:35.721Z,1015.59
2019-06-01T10:27:34.770Z,1015.57
2019-06-01T10:28:35.739Z,1015.54
2019-06-01T10:29:34.841Z,1015.52
2019-06-01T10:30:35.773Z,1015.50
2019-06-01T10:31:34.917Z,1015.54
2019-06-01T10:32:35.716Z,1015.50
2019-06-01T10:33:35.175Z,1015.54
2019-06-01T10:34:35.622Z,1015.55
2019-06-01T10:35:35.123Z,1015.64
2019-06-01T10:36:35.953Z,1015.61
2019-06-01T10:37:35.420Z,1015.67
2019-06-01T10:38:35.262Z,1015.70
2019-06-01T10:39:35.341Z,1015.73
2019-06-01T10:40:35.479Z,1015.76
2019-06-01T10:41:35.400Z,1015.76
2019-06-01T10:42:35.978Z,1015.76
2019-06-01T10:43:35.673Z,1015.80
2019-06-01T10:44:38.957Z,1015.79
2019-06-01T10:45:35.786Z,1015.81
2019-06-01T10:46:36.058Z,1015.88
2019-06-01T10:47:35.970Z,1015.83
2019-06-01T10:48:36.143Z,1015.86
2019-06-01T10:49:35.960Z,1015.87
2019-06-01T10:50:36.683Z,1015.83
2019-06-01T10:51:36.212Z,1015.84
2019-06-01T10:52:36.226Z,1015.89
2019-06-01T10:53:36.339Z,1015.88
2019-06-01T10:54:36.199Z,1015.82
2019-06-01T10:55:38.267Z,1015.80
2019-06-01T10:56:36.284Z,1015.73
2019-06-01T10:57:36.631Z,1015.74
2019-06-01T10:58:49.927Z,1015.73
2019-06-01T10:59:36.995Z,1015.80
2019-06-01T11:00:43.481Z,1015.73
2019-06-01T11:01:37.372Z,1015.69
2019-06-01T11:02:36.628Z,1015.65
2019-06-01T11:03:36.703Z,1015.71
2019-06-01T11:04:37.063Z,1015.63
2019-06-01T11:05:36.723Z,1015.68
2019-06-01T11:06:42.247Z,1015.73
2019-06-01T11:07:36.784Z,1015.75
2019-06-01T11:08:37.331Z,1015.80
2019-06-01T11:09:36.935Z,1015.84
2019-06-01T11:10:36.896Z,1015.70
2019-06-01T11:11:36.913Z,1015.75
2019-06-01T11:12:36.866Z,1015.71
2019-06-01T11:13:37.083Z,1015.78
2019-06-01T11:14:37.062Z,1015.72
2019-06-01T11:15:36.987Z,1015.71
2019-06-01T11:16:37.337Z,1015.63
2019-06-01T11:17:37.056Z,1015.69
2019-06-01T11:18:37.469Z,1015.73
2019-06-01T11:19:37.209Z,1015.74
2019-06-01T11:20:37.292Z,1015.73
2019-06-01T11:21:37.450Z,1015.69
2019-06-01T11:22:37.518Z,1015.65
2019-06-01T11:23:37.461Z,1015.69
2019-06-01T11:24:37.453Z,1015.57
2019-06-01T11:25:37.539Z,1015.58
2019-06-01T11:26:37.639Z,1015.51
2019-06-01T11:27:37.743Z,1015.50
2019-06-01T11:28:38.207Z,1015.54
2019-06-01T11:29:43.780Z,1015.54
2019-06-01T11:30:37.905Z,1015.47
2019-06-01T11:31:38.310Z,1015.52
2019-06-01T11:32:39.447Z,1015.52
2019-06-01T11:33:38.192Z,1015.53
2019-06-01T11:34:38.448Z,1015.60
2019-06-01T11:35:37.336Z,1015.58
2019-06-01T11:36:54.102Z,1015.56
2019-06-01T11:37:38.412Z,1015.64
2019-06-01T11:38:38.459Z,1015.57
2019-06-01T11:39:38.468Z,1015.45
2019-06-01T11:41:38.486Z,1015.45
2019-06-01T11:42:39.047Z,1015.38
2019-06-01T11:43:38.612Z,1015.27
2019-06-01T11:44:38.661Z,1015.22
2019-06-01T11:45:38.806Z,1015.13
2019-06-01T11:46:38.872Z,1015.06
2019-06-01T11:47:38.897Z,1015.05
2019-06-01T11:48:39.220Z,1015.03
2019-06-01T11:49:38.670Z,1014.97
2019-06-01T11:50:38.945Z,1014.92
2019-06-01T11:51:39.415Z,1014.87
2019-06-01T11:52:39.205Z,1014.87
2019-06-01T11:54:39.163Z,1014.83
2019-06-01T11:55:39.221Z,1014.90
2019-06-01T11:56:39.201Z,1014.79
2019-06-01T11:58:39.220Z,1014.73
2019-06-01T11:59:39.398Z,1014.71
2019-06-01T12:00:39.494Z,1014.75
2019-06-01T12:01:39.745Z,1014.76
2019-06-01T12:02:39.666Z,1014.73
2019-06-01T12:03:39.599Z,1014.68
2019-06-01T12:04:39.732Z,1014.68
2019-06-01T12:05:39.869Z,1014.62
2019-06-01T12:06:39.814Z,1014.65
2019-06-01T12:07:39.742Z,1014.66
2019-06-01T12:08:39.876Z,1014.61
2019-06-01T12:09:39.900Z,1014.63
2019-06-01T12:10:38.992Z,1014.66
2019-06-01T12:11:39.813Z,1014.62
2019-06-01T12:12:40.034Z,1014.58
2019-06-01T12:13:40.041Z,1014.59
2019-06-01T12:15:40.176Z,1014.60
2019-06-01T12:16:38.877Z,1014.64
2019-06-01T12:17:39.006Z,1014.59
2019-06-01T12:18:38.935Z,1014.56
2019-06-01T12:19:38.977Z,1014.54